createdAt,value
2023-01-09T00:06:35.825Z,102384.88
2023-01-09T00:16:40.350Z,102387.41
2023-01-09T00:26:45.179Z,102397.94
2023-01-09T00:36:49.623Z,102408.97
2023-01-09T00:46:56.167Z,102420.69
2023-01-09T00:57:00.930Z,102432.22
2023-01-09T01:07:22.525Z,102442.28
2023-01-09T01:17:26.935Z,102450.66
2023-01-09T01:27:30.528Z,102461.28
2023-01-09T01:37:36.246Z,102471.72
2023-01-09T01:47:45.649Z,102482.47
2023-01-09T01:57:55.653Z,102492.91
2023-01-09T02:08:00.179Z,102490.72
2023-01-09T02:18:31.649Z,102500.56
2023-01-09T02:29:09.470Z,102510.47
2023-01-09T02:39:24.255Z,102521.16
2023-01-09T02:49:28.397Z,102525.97
2023-01-09T02:59:42.332Z,102537.66
2023-01-09T03:09:48.803Z,102546.19
2023-01-09T03:19:54.743Z,102557.41
2023-01-09T03:29:58.342Z,102564.97
2023-01-09T03:40:02.849Z,102574.38
2023-01-09T03:50:10.191Z,102577.59
2023-01-09T04:00:19.299Z,102581.53
2023-01-09T04:10:24.547Z,102574.63
2023-01-09T04:20:29.195Z,102582.00
2023-01-09T04:30:32.133Z,102586.81
2023-01-09T04:40:37.484Z,102595.22
2023-01-09T04:50:40.488Z,102605.41
2023-01-09T05:00:44.866Z,102616.19
2023-01-09T05:10:48.203Z,102627.47
2023-01-09T05:20:52.614Z,102643.34
2023-01-09T05:30:58.548Z,102654.41
2023-01-09T05:41:13.414Z,102668.72
2023-01-09T05:51:16.864Z,102680.28
2023-01-09T06:01:36.066Z,102678.50
2023-01-09T06:11:39.125Z,102679.78
2023-01-09T06:21:43.578Z,102695.41
2023-01-09T06:31:48.907Z,102710.81
2023-01-09T06:41:53.322Z,102726.28
2023-01-09T06:51:58.207Z,102728.56
2023-01-09T07:02:02.976Z,102738.28
2023-01-09T07:12:06.477Z,102750.69
2023-01-09T07:22:11.361Z,102758.53
2023-01-09T07:32:14.395Z,102774.00
2023-01-09T07:42:21.750Z,102784.31
2023-01-09T07:52:25.059Z,102800.44
2023-01-09T08:02:29.607Z,102814.97
2023-01-09T08:12:37.887Z,102830.13
2023-01-09T08:22:45.857Z,102844.78
2023-01-09T08:32:50.466Z,102859.31
2023-01-09T08:43:13.256Z,102868.31
2023-01-09T08:53:19.181Z,102876.16
2023-01-09T09:03:23.744Z,102886.81
2023-01-09T09:13:27.319Z,102901.63
2023-01-09T09:23:32.234Z,102915.72
2023-01-09T09:33:38.191Z,102917.47
2023-01-09T09:44:21.095Z,102927.63
2023-01-09T09:54:32.083Z,102927.22
2023-01-09T11:25:14.277Z,102945.56
2023-01-09T11:35:34.123Z,102959.13
2023-01-09T11:46:01.040Z,102972.78
2023-01-09T11:56:26.649Z,102979.06
2023-01-09T12:06:45.146Z,102978.00
2023-01-09T12:17:09.464Z,102985.06
2023-01-09T12:27:39.735Z,102986.94
2023-01-09T12:38:02.908Z,102999.94
2023-01-09T12:48:22.337Z,103015.38
2023-01-09T12:58:46.517Z,103024.88
2023-01-09T13:09:02.001Z,103030.75
2023-01-09T13:19:26.044Z,103032.97
2023-01-09T13:29:40.216Z,103044.38
2023-01-09T13:39:45.986Z,103052.78
2023-01-09T14:00:53.045Z,103302.44
2023-01-09T14:11:08.667Z,103293.97
2023-01-09T14:21:18.924Z,103282.28
2023-01-09T14:31:36.257Z,103280.94
2023-01-09T14:42:14.033Z,103264.47
2023-01-09T14:52:27.867Z,103251.50
2023-01-09T15:02:47.340Z,103235.88
2023-01-09T15:12:57.677Z,103225.22
2023-01-09T15:23:39.837Z,103226.16
2023-01-09T15:33:46.671Z,103225.06
2023-01-09T15:44:02.597Z,103223.94
2023-01-09T15:54:18.119Z,103228.75
2023-01-09T16:04:27.388Z,103224.59
2023-01-09T16:14:40.850Z,103232.94
2023-01-09T16:24:49.120Z,103223.50
2023-01-09T16:35:05.996Z,103223.31
2023-01-09T16:45:15.627Z,103208.88
2023-01-09T16:55:21.315Z,103209.97
2023-01-09T17:05:25.930Z,103220.72
2023-01-09T17:15:29.442Z,103226.31
2023-01-09T17:25:55.877Z,103240.69
2023-01-09T17:35:59.301Z,103253.94
2023-01-09T17:46:12.390Z,103266.84
2023-01-09T17:56:18.485Z,103280.00
2023-01-09T18:06:30.634Z,103293.59
2023-01-09T18:16:34.729Z,103293.03
2023-01-09T18:26:56.128Z,103306.19
2023-01-09T18:37:09.467Z,103319.59
2023-01-09T18:47:14.439Z,103330.50
2023-01-09T18:57:23.801Z,103338.19
2023-01-09T19:07:51.953Z,103349.03
2023-01-09T19:17:55.185Z,103355.66
2023-01-09T19:28:02.339Z,103357.56
2023-01-09T19:38:08.792Z,103366.38
2023-01-09T19:48:20.535Z,103377.66
2023-01-09T19:58:27.688Z,103381.38
2023-01-09T20:08:37.960Z,103391.78
2023-01-09T20:18:41.167Z,103399.31
2023-01-09T20:28:49.005Z,103410.56
2023-01-09T20:38:54.467Z,103417.41
2023-01-09T20:49:02.276Z,103424.06
2023-01-09T20:59:06.689Z,103424.84
2023-01-09T21:09:17.221Z,103429.28
2023-01-09T21:19:26.517Z,103441.25
2023-01-09T21:29:31.004Z,103451.91
2023-01-09T21:39:34.611Z,103449.72
2023-01-09T21:49:48.280Z,103448.31
2023-01-09T21:59:55.404Z,103461.84
2023-01-09T22:10:04.472Z,103465.44
2023-01-09T22:20:09.595Z,103473.25
2023-01-09T22:30:16.944Z,103483.41
2023-01-09T22:40:20.254Z,103495.72
2023-01-09T22:50:25.098Z,103498.81
2023-01-09T23:00:30.618Z,103504.25
2023-01-09T23:10:35.135Z,103515.56
2023-01-09T23:20:41.132Z,103527.09
2023-01-09T23:30:46.073Z,103532.00
2023-01-09T23:40:55.688Z,103542.84
2023-01-09T23:51:03.642Z,103554.13
